Forum - METEO

POST X METEO

Amministratore
F.ranco52 13/10/2021 ore 08:52 Quota

(nessuno) Nowcasting Mercoledì 13 Ottobre 2021

Buongiorno e Buona Giornata a tutti





Notizie Meteo dell'Italia da il Meteo .It


http://ilMeteo.It


la Situazione Italiana vista dal Sat









il Radar Europeo










Brindisi

METAR LIBR 130520Z 28009KT 9999 FEW020 14/09 Q1011=

METAR di Brindisi del 13 alle 5,20z

Vento da 280° W NW 9 nodi (16,668 km) Visibilità 10000 m
Copertura 1-2 ottavi da 2000 piedi (609,6 m)
Temp 14°C Dew 9°C Ur 71% hPa 1011

Brindisi

TAF LIBR 130500Z 1306/1406 30010KT 9999 FEW040 TEMPO 1312/1320 SHRA BECMG 1322/1324 04013KT=++

le TAF di Brindiosi delle 5z Previsioni dalle 6z alle 6z del 14

Vento da 300* W NW 10 nodi (18,52 km) Visibilità 10000 m
Copertura 1-2 ottavi da 4000 piedi (1219,2 m)
il Tempo Varierà dalle 12z alle 20z
Rovesci di Pioggia
le Condizioni Diverranno fra le 22z e le 24z
Vento da 40° N NE 13 nodi (23,076 km)


Gioia del Colle

METAR LIBV 130455Z 30004KT CAVOK 10/08 Q1011 RMK BKN FEW080 BKN200 VIS MIN 9999 WIND THR32 35005KT WIND THR14 30005KT BLU=

METAR di Gioia del Colle del 13 alle 4,55z

Vento da 300° W NW 4 nodi (7,408 km) Visibilità 10000 m
Base delle Nubi e Visibilità OK
Temp 10°C Dew 8°C Ur 87% hPa 1011
Aumento della Nuvolosità a 5-7 ottavi
Copertura 1-2 ottavi da 8000 piedi (2438,4 m)
Copertura 5-7 ottavi da 20000 piedi (6096 m)
Visibilità Minima 10000 m

Gioia del Colle

TAF LIBV 130500Z 1306/1315 35010KT 9999 SCT030 TEMPO 1310/1315 5000 SHRA FEW025CB BKN025=

le TAF di Gioia del Colle delle 5z Previsioni dalle 6z alle 15z

Vento da 350° N NW 10 nodi (18,52 km) Visbilità 10000 m
Copertura 3-4 ottavi da 3000 piedi (914,4 m)
il Tempo Varierà dalle 10z alle 15z
Visibilità 5000 m , Rovesci di Pioggia
Copertura 1-2 ottavi da 2500 piedi (762 m ) Cumulonembi
Copertura 5-7 ottavi da 2500 piedi ((652,2 m
( per ne c'è un errore di scrittura su la copertura a 5-7 ottavi , dovrebbe essere a 3500 piedi (1066,8 m)
2743351
Buongiorno e Buona Giornata a tutti Notizie Meteo dell'Italia da il Meteo .It http://ilMeteo.It la Situazione Italiana vista dal...
Discussione
13/10/2021 08:52:40
none
  • mi piace
    iLikeIt
    PublicVote

Vuoi partecipare anche tu a questa discussione?

Rispondi per lasciare il tuo messaggio in questa discussione